sensor_id;sensor_type;location;lat;lon;timestamp;P1;durP1;ratioP1;P2;durP2;ratioP2
28760;SDS011;15917;50.014;8.352;2023-04-06T00:00:56;10.00;;;4.25;;
28760;SDS011;15917;50.014;8.352;2023-04-06T00:03:22;10.50;;;4.47;;
28760;SDS011;15917;50.014;8.352;2023-04-06T00:05:48;9.57;;;4.15;;
28760;SDS011;15917;50.014;8.352;2023-04-06T00:08:14;11.60;;;4.40;;
28760;SDS011;15917;50.014;8.352;2023-04-06T00:10:40;7.32;;;4.25;;
28760;SDS011;15917;50.014;8.352;2023-04-06T00:13:06;8.88;;;3.90;;
28760;SDS011;15917;50.014;8.352;2023-04-06T00:15:32;10.10;;;4.05;;
28760;SDS011;15917;50.014;8.352;2023-04-06T00:17:58;9.80;;;3.95;;
28760;SDS011;15917;50.014;8.352;2023-04-06T00:20:24;9.60;;;4.22;;
28760;SDS011;15917;50.014;8.352;2023-04-06T00:22:50;9.15;;;4.47;;
28760;SDS011;15917;50.014;8.352;2023-04-06T00:25:16;7.97;;;4.15;;
28760;SDS011;15917;50.014;8.352;2023-04-06T00:27:41;9.95;;;4.47;;
28760;SDS011;15917;50.014;8.352;2023-04-06T00:30:07;11.30;;;4.45;;
28760;SDS011;15917;50.014;8.352;2023-04-06T00:32:34;8.65;;;3.97;;
28760;SDS011;15917;50.014;8.352;2023-04-06T00:35:01;6.20;;;3.70;;
28760;SDS011;15917;50.014;8.352;2023-04-06T00:37:28;13.02;;;4.38;;
28760;SDS011;15917;50.014;8.352;2023-04-06T00:39:54;7.95;;;4.43;;
28760;SDS011;15917;50.014;8.352;2023-04-06T00:42:20;11.80;;;4.25;;
28760;SDS011;15917;50.014;8.352;2023-04-06T00:44:57;11.70;;;4.78;;
28760;SDS011;15917;50.014;8.352;2023-04-06T00:47:24;10.85;;;4.40;;
28760;SDS011;15917;50.014;8.352;2023-04-06T00:49:51;9.43;;;3.88;;
28760;SDS011;15917;50.014;8.352;2023-04-06T00:52:17;10.25;;;4.35;;
28760;SDS011;15917;50.014;8.352;2023-04-06T00:54:46;9.50;;;4.43;;
28760;SDS011;15917;50.014;8.352;2023-04-06T00:57:12;13.63;;;4.28;;
28760;SDS011;15917;50.014;8.352;2023-04-06T00:59:40;7.60;;;3.83;;
28760;SDS011;15917;50.014;8.352;2023-04-06T01:02:08;10.75;;;4.53;;
28760;SDS011;15917;50.014;8.352;2023-04-06T01:04:41;10.07;;;4.00;;
28760;SDS011;15917;50.014;8.352;2023-04-06T01:07:13;9.73;;;4.38;;
28760;SDS011;15917;50.014;8.352;2023-04-06T01:09:47;11.80;;;4.32;;
28760;SDS011;15917;50.014;8.352;2023-04-06T01:12:19;8.88;;;4.50;;
28760;SDS011;15917;50.014;8.352;2023-04-06T01:14:46;10.50;;;4.45;;
28760;SDS011;15917;50.014;8.352;2023-04-06T01:17:11;6.18;;;3.88;;
28760;SDS011;15917;50.014;8.352;2023-04-06T01:19:38;12.52;;;4.70;;
28760;SDS011;15917;50.014;8.352;2023-04-06T01:22:06;11.10;;;4.00;;
28760;SDS011;15917;50.014;8.352;2023-04-06T01:24:32;10.30;;;4.00;;
28760;SDS011;15917;50.014;8.352;2023-04-06T01:27:06;10.13;;;4.28;;
28760;SDS011;15917;50.014;8.352;2023-04-06T01:29:52;12.43;;;4.38;;
28760;SDS011;15917;50.014;8.352;2023-04-06T01:32:32;8.27;;;3.90;;
28760;SDS011;15917;50.014;8.352;2023-04-06T01:34:58;12.27;;;4.68;;
28760;SDS011;15917;50.014;8.352;2023-04-06T01:37:25;10.88;;;4.32;;
28760;SDS011;15917;50.014;8.352;2023-04-06T01:39:53;7.82;;;4.20;;
28760;SDS011;15917;50.014;8.352;2023-04-06T01:42:32;7.88;;;3.65;;
28760;SDS011;15917;50.014;8.352;2023-04-06T01:44:58;7.45;;;4.00;;
28760;SDS011;15917;50.014;8.352;2023-04-06T01:47:23;8.07;;;4.40;;
28760;SDS011;15917;50.014;8.352;2023-04-06T01:49:49;7.30;;;4.30;;
28760;SDS011;15917;50.014;8.352;2023-04-06T01:52:16;8.48;;;4.35;;
28760;SDS011;15917;50.014;8.352;2023-04-06T01:54:49;9.05;;;4.35;;
28760;SDS011;15917;50.014;8.352;2023-04-06T01:57:30;11.73;;;4.53;;
28760;SDS011;15917;50.014;8.352;2023-04-06T02:00:05;12.40;;;4.53;;
28760;SDS011;15917;50.014;8.352;2023-04-06T02:02:48;10.23;;;4.47;;
28760;SDS011;15917;50.014;8.352;2023-04-06T02:05:20;10.15;;;4.45;;
28760;SDS011;15917;50.014;8.352;2023-04-06T02:07:46;15.85;;;4.38;;
28760;SDS011;15917;50.014;8.352;2023-04-06T02:10:16;7.53;;;4.28;;
28760;SDS011;15917;50.014;8.352;2023-04-06T02:12:43;12.98;;;4.75;;
28760;SDS011;15917;50.014;8.352;2023-04-06T02:15:12;16.98;;;4.75;;
28760;SDS011;15917;50.014;8.352;2023-04-06T02:17:38;11.02;;;5.30;;
28760;SDS011;15917;50.014;8.352;2023-04-06T02:20:05;10.60;;;4.03;;
28760;SDS011;15917;50.014;8.352;2023-04-06T02:22:31;13.45;;;4.55;;
28760;SDS011;15917;50.014;8.352;2023-04-06T02:24:58;11.82;;;5.03;;
28760;SDS011;15917;50.014;8.352;2023-04-06T02:27:25;13.57;;;5.57;;
28760;SDS011;15917;50.014;8.352;2023-04-06T02:29:50;11.15;;;5.40;;
28760;SDS011;15917;50.014;8.352;2023-04-06T02:32:19;12.40;;;4.57;;
28760;SDS011;15917;50.014;8.352;2023-04-06T02:34:45;9.75;;;4.45;;
28760;SDS011;15917;50.014;8.352;2023-04-06T02:37:12;7.05;;;3.95;;
28760;SDS011;15917;50.014;8.352;2023-04-06T02:39:38;11.48;;;4.80;;
28760;SDS011;15917;50.014;8.352;2023-04-06T02:42:07;11.85;;;4.47;;
28760;SDS011;15917;50.014;8.352;2023-04-06T02:44:33;9.65;;;4.20;;
28760;SDS011;15917;50.014;8.352;2023-04-06T02:47:00;11.35;;;4.13;;
28760;SDS011;15917;50.014;8.352;2023-04-06T02:49:26;10.35;;;4.88;;
28760;SDS011;15917;50.014;8.352;2023-04-06T02:51:55;11.77;;;4.90;;
28760;SDS011;15917;50.014;8.352;2023-04-06T02:54:24;10.15;;;4.88;;
28760;SDS011;15917;50.014;8.352;2023-04-06T02:56:50;10.30;;;5.07;;
28760;SDS011;15917;50.014;8.352;2023-04-06T02:59:17;11.40;;;4.43;;
28760;SDS011;15917;50.014;8.352;2023-04-06T03:01:51;10.23;;;4.80;;
28760;SDS011;15917;50.014;8.352;2023-04-06T03:04:17;11.13;;;5.45;;
28760;SDS011;15917;50.014;8.352;2023-04-06T03:06:42;8.68;;;4.50;;
28760;SDS011;15917;50.014;8.352;2023-04-06T03:09:19;11.93;;;4.57;;
28760;SDS011;15917;50.014;8.352;2023-04-06T03:11:45;13.95;;;4.88;;
28760;SDS011;15917;50.014;8.352;2023-04-06T03:14:10;8.05;;;4.18;;
28760;SDS011;15917;50.014;8.352;2023-04-06T03:16:36;13.48;;;4.10;;
28760;SDS011;15917;50.014;8.352;2023-04-06T03:19:02;10.65;;;4.82;;
28760;SDS011;15917;50.014;8.352;2023-04-06T03:21:31;14.23;;;4.68;;
28760;SDS011;15917;50.014;8.352;2023-04-06T03:23:57;10.95;;;5.30;;
28760;SDS011;15917;50.014;8.352;2023-04-06T03:26:22;10.80;;;5.25;;
28760;SDS011;15917;50.014;8.352;2023-04-06T03:28:50;12.85;;;5.22;;
28760;SDS011;15917;50.014;8.352;2023-04-06T03:31:19;13.65;;;4.75;;
28760;SDS011;15917;50.014;8.352;2023-04-06T03:33:53;7.18;;;4.32;;
28760;SDS011;15917;50.014;8.352;2023-04-06T03:36:23;10.45;;;4.90;;
28760;SDS011;15917;50.014;8.352;2023-04-06T03:38:52;10.40;;;4.43;;
28760;SDS011;15917;50.014;8.352;2023-04-06T03:41:18;9.68;;;4.60;;
28760;SDS011;15917;50.014;8.352;2023-04-06T03:43:52;8.35;;;5.03;;
28760;SDS011;15917;50.014;8.352;2023-04-06T03:46:18;8.45;;;4.43;;
28760;SDS011;15917;50.014;8.352;2023-04-06T03:48:48;11.38;;;4.97;;
28760;SDS011;15917;50.014;8.352;2023-04-06T03:51:16;11.15;;;5.03;;
28760;SDS011;15917;50.014;8.352;2023-04-06T03:53:41;10.77;;;4.13;;
28760;SDS011;15917;50.014;8.352;2023-04-06T03:56:07;9.25;;;3.92;;
28760;SDS011;15917;50.014;8.352;2023-04-06T03:58:33;8.50;;;4.68;;
28760;SDS011;15917;50.014;8.352;2023-04-06T04:00:59;19.52;;;4.15;;
28760;SDS011;15917;50.014;8.352;2023-04-06T04:03:25;15.77;;;4.55;;
28760;SDS011;15917;50.014;8.352;2023-04-06T04:05:52;11.75;;;4.75;;
28760;SDS011;15917;50.014;8.352;2023-04-06T04:08:20;12.10;;;4.93;;
28760;SDS011;15917;50.014;8.352;2023-04-06T04:10:46;11.55;;;4.78;;
28760;SDS011;15917;50.014;8.352;2023-04-06T04:13:12;8.77;;;4.15;;
28760;SDS011;15917;50.014;8.352;2023-04-06T04:15:39;13.15;;;5.25;;
28760;SDS011;15917;50.014;8.352;2023-04-06T04:18:04;11.10;;;5.20;;
28760;SDS011;15917;50.014;8.352;2023-04-06T04:20:31;22.35;;;5.25;;
28760;SDS011;15917;50.014;8.352;2023-04-06T04:22:56;11.82;;;5.60;;
28760;SDS011;15917;50.014;8.352;2023-04-06T04:25:22;20.40;;;7.28;;
28760;SDS011;15917;50.014;8.352;2023-04-06T04:27:48;27.92;;;9.27;;
28760;SDS011;15917;50.014;8.352;2023-04-06T04:30:16;35.60;;;8.95;;
28760;SDS011;15917;50.014;8.352;2023-04-06T04:32:42;34.20;;;9.15;;
28760;SDS011;15917;50.014;8.352;2023-04-06T04:35:08;17.20;;;6.95;;
28760;SDS011;15917;50.014;8.352;2023-04-06T04:37:40;17.23;;;6.50;;
28760;SDS011;15917;50.014;8.352;2023-04-06T04:40:07;18.60;;;6.25;;
28760;SDS011;15917;50.014;8.352;2023-04-06T04:42:42;14.85;;;5.80;;
28760;SDS011;15917;50.014;8.352;2023-04-06T04:45:14;13.82;;;5.18;;
28760;SDS011;15917;50.014;8.352;2023-04-06T04:47:41;14.60;;;5.78;;
28760;SDS011;15917;50.014;8.352;2023-04-06T04:50:07;12.38;;;6.00;;
28760;SDS011;15917;50.014;8.352;2023-04-06T04:52:37;12.45;;;5.00;;
28760;SDS011;15917;50.014;8.352;2023-04-06T04:55:34;13.13;;;5.15;;
28760;SDS011;15917;50.014;8.352;2023-04-06T04:58:01;14.50;;;5.30;;
28760;SDS011;15917;50.014;8.352;2023-04-06T05:00:44;11.38;;;5.35;;
28760;SDS011;15917;50.014;8.352;2023-04-06T05:03:11;11.77;;;5.45;;
28760;SDS011;15917;50.014;8.352;2023-04-06T05:05:56;10.88;;;5.30;;
28760;SDS011;15917;50.014;8.352;2023-04-06T05:08:25;12.43;;;4.90;;
28760;SDS011;15917;50.014;8.352;2023-04-06T05:10:50;11.52;;;4.60;;
28760;SDS011;15917;50.014;8.352;2023-04-06T05:13:18;8.00;;;4.65;;
28760;SDS011;15917;50.014;8.352;2023-04-06T05:18:32;15.93;;;5.47;;
28760;SDS011;15917;50.014;8.352;2023-04-06T05:21:00;20.42;;;5.10;;
28760;SDS011;15917;50.014;8.352;2023-04-06T05:23:35;8.73;;;5.20;;
28760;SDS011;15917;50.014;8.352;2023-04-06T05:26:02;11.90;;;5.78;;
28760;SDS011;15917;50.014;8.352;2023-04-06T05:28:27;14.88;;;6.40;;
28760;SDS011;15917;50.014;8.352;2023-04-06T05:30:53;12.75;;;7.20;;
28760;SDS011;15917;50.014;8.352;2023-04-06T05:33:20;17.48;;;7.05;;
28760;SDS011;15917;50.014;8.352;2023-04-06T05:36:14;15.07;;;6.70;;
28760;SDS011;15917;50.014;8.352;2023-04-06T05:38:43;14.63;;;6.72;;
28760;SDS011;15917;50.014;8.352;2023-04-06T05:41:29;20.80;;;6.07;;
28760;SDS011;15917;50.014;8.352;2023-04-06T05:43:55;10.90;;;4.95;;
28760;SDS011;15917;50.014;8.352;2023-04-06T05:46:22;17.83;;;5.20;;
28760;SDS011;15917;50.014;8.352;2023-04-06T05:48:49;9.40;;;4.45;;
28760;SDS011;15917;50.014;8.352;2023-04-06T05:51:15;13.02;;;4.78;;
28760;SDS011;15917;50.014;8.352;2023-04-06T05:53:47;10.73;;;4.68;;
28760;SDS011;15917;50.014;8.352;2023-04-06T05:56:12;14.05;;;4.90;;
28760;SDS011;15917;50.014;8.352;2023-04-06T05:58:39;8.95;;;4.80;;
28760;SDS011;15917;50.014;8.352;2023-04-06T06:01:07;17.42;;;5.50;;
28760;SDS011;15917;50.014;8.352;2023-04-06T06:03:41;27.63;;;9.05;;
28760;SDS011;15917;50.014;8.352;2023-04-06T06:06:06;26.95;;;8.45;;
28760;SDS011;15917;50.014;8.352;2023-04-06T06:08:46;34.95;;;10.57;;
28760;SDS011;15917;50.014;8.352;2023-04-06T06:11:14;27.92;;;9.02;;
28760;SDS011;15917;50.014;8.352;2023-04-06T06:13:40;19.00;;;7.97;;
28760;SDS011;15917;50.014;8.352;2023-04-06T06:16:07;19.42;;;6.68;;
28760;SDS011;15917;50.014;8.352;2023-04-06T06:18:37;14.10;;;6.22;;
28760;SDS011;15917;50.014;8.352;2023-04-06T06:21:03;17.40;;;6.68;;
28760;SDS011;15917;50.014;8.352;2023-04-06T06:23:30;17.48;;;6.28;;
28760;SDS011;15917;50.014;8.352;2023-04-06T06:25:56;17.98;;;6.45;;
28760;SDS011;15917;50.014;8.352;2023-04-06T06:28:24;17.17;;;6.80;;
28760;SDS011;15917;50.014;8.352;2023-04-06T06:30:50;15.52;;;6.75;;
28760;SDS011;15917;50.014;8.352;2023-04-06T06:33:20;14.73;;;6.80;;
28760;SDS011;15917;50.014;8.352;2023-04-06T06:38:14;14.38;;;6.90;;
28760;SDS011;15917;50.014;8.352;2023-04-06T06:40:40;18.60;;;7.25;;
28760;SDS011;15917;50.014;8.352;2023-04-06T06:43:06;14.73;;;7.07;;
28760;SDS011;15917;50.014;8.352;2023-04-06T06:45:47;16.50;;;7.22;;
28760;SDS011;15917;50.014;8.352;2023-04-06T06:48:13;14.90;;;6.88;;
28760;SDS011;15917;50.014;8.352;2023-04-06T06:50:39;21.90;;;7.00;;
28760;SDS011;15917;50.014;8.352;2023-04-06T06:53:05;13.10;;;6.63;;
28760;SDS011;15917;50.014;8.352;2023-04-06T06:55:31;20.38;;;7.50;;
28760;SDS011;15917;50.014;8.352;2023-04-06T06:57:56;12.85;;;7.13;;
28760;SDS011;15917;50.014;8.352;2023-04-06T07:00:22;22.80;;;7.63;;
28760;SDS011;15917;50.014;8.352;2023-04-06T07:02:50;18.83;;;7.85;;
28760;SDS011;15917;50.014;8.352;2023-04-06T07:05:16;15.30;;;7.13;;
28760;SDS011;15917;50.014;8.352;2023-04-06T07:07:41;17.40;;;8.15;;
28760;SDS011;15917;50.014;8.352;2023-04-06T07:10:07;22.58;;;8.30;;
28760;SDS011;15917;50.014;8.352;2023-04-06T07:12:36;18.35;;;8.10;;
28760;SDS011;15917;50.014;8.352;2023-04-06T07:15:02;19.10;;;9.43;;
28760;SDS011;15917;50.014;8.352;2023-04-06T07:17:28;26.25;;;9.55;;
28760;SDS011;15917;50.014;8.352;2023-04-06T07:19:54;16.75;;;8.07;;
28760;SDS011;15917;50.014;8.352;2023-04-06T07:22:20;15.48;;;7.85;;
28760;SDS011;15917;50.014;8.352;2023-04-06T07:24:45;22.98;;;8.00;;
28760;SDS011;15917;50.014;8.352;2023-04-06T07:27:12;15.38;;;7.93;;
28760;SDS011;15917;50.014;8.352;2023-04-06T07:29:38;13.10;;;8.07;;
28760;SDS011;15917;50.014;8.352;2023-04-06T07:32:04;23.60;;;8.45;;
28760;SDS011;15917;50.014;8.352;2023-04-06T07:34:32;17.27;;;7.85;;
28760;SDS011;15917;50.014;8.352;2023-04-06T07:36:58;18.05;;;7.47;;
28760;SDS011;15917;50.014;8.352;2023-04-06T07:39:26;16.80;;;7.35;;
28760;SDS011;15917;50.014;8.352;2023-04-06T07:41:55;16.02;;;7.22;;
28760;SDS011;15917;50.014;8.352;2023-04-06T07:44:20;14.35;;;8.13;;
28760;SDS011;15917;50.014;8.352;2023-04-06T07:46:47;14.60;;;7.15;;
28760;SDS011;15917;50.014;8.352;2023-04-06T07:49:13;15.50;;;7.30;;
28760;SDS011;15917;50.014;8.352;2023-04-06T07:51:39;15.50;;;7.07;;
28760;SDS011;15917;50.014;8.352;2023-04-06T07:54:05;22.13;;;7.68;;
28760;SDS011;15917;50.014;8.352;2023-04-06T07:56:31;16.55;;;7.07;;
28760;SDS011;15917;50.014;8.352;2023-04-06T07:58:57;18.15;;;7.45;;
28760;SDS011;15917;50.014;8.352;2023-04-06T08:01:23;20.83;;;7.30;;
28760;SDS011;15917;50.014;8.352;2023-04-06T08:03:49;18.50;;;7.85;;
28760;SDS011;15917;50.014;8.352;2023-04-06T08:06:15;22.45;;;8.82;;
28760;SDS011;15917;50.014;8.352;2023-04-06T08:08:41;16.15;;;7.68;;
28760;SDS011;15917;50.014;8.352;2023-04-06T08:11:07;21.95;;;8.38;;
28760;SDS011;15917;50.014;8.352;2023-04-06T08:13:33;17.85;;;7.63;;
28760;SDS011;15917;50.014;8.352;2023-04-06T08:16:00;19.90;;;7.50;;
28760;SDS011;15917;50.014;8.352;2023-04-06T08:18:26;17.20;;;6.88;;
28760;SDS011;15917;50.014;8.352;2023-04-06T08:20:52;20.35;;;10.23;;
28760;SDS011;15917;50.014;8.352;2023-04-06T08:23:17;15.75;;;7.25;;
28760;SDS011;15917;50.014;8.352;2023-04-06T08:25:43;17.75;;;7.85;;
28760;SDS011;15917;50.014;8.352;2023-04-06T08:28:09;18.40;;;7.93;;
28760;SDS011;15917;50.014;8.352;2023-04-06T08:30:35;11.85;;;7.03;;
28760;SDS011;15917;50.014;8.352;2023-04-06T08:33:00;22.10;;;8.70;;
28760;SDS011;15917;50.014;8.352;2023-04-06T08:35:26;17.70;;;7.72;;
28760;SDS011;15917;50.014;8.352;2023-04-06T08:37:52;14.82;;;6.78;;
28760;SDS011;15917;50.014;8.352;2023-04-06T08:40:18;15.07;;;6.97;;
28760;SDS011;15917;50.014;8.352;2023-04-06T08:42:44;16.83;;;7.30;;
28760;SDS011;15917;50.014;8.352;2023-04-06T08:45:15;20.90;;;8.35;;
28760;SDS011;15917;50.014;8.352;2023-04-06T08:47:42;16.53;;;7.83;;
28760;SDS011;15917;50.014;8.352;2023-04-06T08:50:09;22.17;;;8.27;;
28760;SDS011;15917;50.014;8.352;2023-04-06T08:55:03;19.35;;;7.60;;
28760;SDS011;15917;50.014;8.352;2023-04-06T08:57:29;19.60;;;8.05;;
28760;SDS011;15917;50.014;8.352;2023-04-06T08:59:56;15.18;;;7.10;;
28760;SDS011;15917;50.014;8.352;2023-04-06T09:02:25;17.40;;;7.85;;
28760;SDS011;15917;50.014;8.352;2023-04-06T09:04:52;22.10;;;7.95;;
28760;SDS011;15917;50.014;8.352;2023-04-06T09:07:19;24.52;;;8.32;;
28760;SDS011;15917;50.014;8.352;2023-04-06T09:09:46;18.95;;;7.72;;
28760;SDS011;15917;50.014;8.352;2023-04-06T09:14:48;13.85;;;7.90;;
28760;SDS011;15917;50.014;8.352;2023-04-06T09:17:21;19.25;;;8.77;;
28760;SDS011;15917;50.014;8.352;2023-04-06T09:19:47;21.05;;;9.10;;
28760;SDS011;15917;50.014;8.352;2023-04-06T09:22:13;21.40;;;8.90;;
28760;SDS011;15917;50.014;8.352;2023-04-06T09:24:43;19.90;;;8.52;;
28760;SDS011;15917;50.014;8.352;2023-04-06T09:27:29;24.63;;;8.30;;
28760;SDS011;15917;50.014;8.352;2023-04-06T09:30:06;18.67;;;8.80;;
28760;SDS011;15917;50.014;8.352;2023-04-06T09:32:43;15.48;;;7.70;;
28760;SDS011;15917;50.014;8.352;2023-04-06T09:35:11;17.58;;;9.73;;
28760;SDS011;15917;50.014;8.352;2023-04-06T09:37:37;20.35;;;9.07;;
28760;SDS011;15917;50.014;8.352;2023-04-06T09:40:06;21.20;;;8.80;;
28760;SDS011;15917;50.014;8.352;2023-04-06T09:42:33;22.45;;;8.50;;
28760;SDS011;15917;50.014;8.352;2023-04-06T09:45:00;20.23;;;8.68;;
28760;SDS011;15917;50.014;8.352;2023-04-06T09:47:29;22.60;;;8.68;;
28760;SDS011;15917;50.014;8.352;2023-04-06T09:49:59;23.17;;;9.13;;
28760;SDS011;15917;50.014;8.352;2023-04-06T09:52:37;16.65;;;8.82;;
28760;SDS011;15917;50.014;8.352;2023-04-06T09:55:12;18.38;;;8.63;;
28760;SDS011;15917;50.014;8.352;2023-04-06T09:57:57;23.33;;;8.43;;
28760;SDS011;15917;50.014;8.352;2023-04-06T10:00:43;19.25;;;8.10;;
28760;SDS011;15917;50.014;8.352;2023-04-06T10:03:21;17.25;;;9.15;;
28760;SDS011;15917;50.014;8.352;2023-04-06T10:06:13;16.27;;;9.30;;
28760;SDS011;15917;50.014;8.352;2023-04-06T10:08:42;17.77;;;8.60;;
28760;SDS011;15917;50.014;8.352;2023-04-06T10:11:10;19.55;;;9.23;;
28760;SDS011;15917;50.014;8.352;2023-04-06T10:13:36;18.83;;;9.35;;
28760;SDS011;15917;50.014;8.352;2023-04-06T10:16:02;20.15;;;8.77;;
28760;SDS011;15917;50.014;8.352;2023-04-06T10:18:29;17.48;;;9.35;;
28760;SDS011;15917;50.014;8.352;2023-04-06T10:21:09;20.80;;;9.02;;
28760;SDS011;15917;50.014;8.352;2023-04-06T10:23:45;15.98;;;8.93;;
28760;SDS011;15917;50.014;8.352;2023-04-06T10:26:15;21.23;;;9.05;;
28760;SDS011;15917;50.014;8.352;2023-04-06T10:28:42;16.83;;;9.02;;
28760;SDS011;15917;50.014;8.352;2023-04-06T10:31:09;19.40;;;9.88;;
28760;SDS011;15917;50.014;8.352;2023-04-06T10:33:34;15.75;;;8.60;;
28760;SDS011;15917;50.014;8.352;2023-04-06T10:36:10;15.07;;;9.07;;
28760;SDS011;15917;50.014;8.352;2023-04-06T10:38:38;21.00;;;9.85;;
28760;SDS011;15917;50.014;8.352;2023-04-06T10:41:05;25.23;;;9.93;;
28760;SDS011;15917;50.014;8.352;2023-04-06T10:43:35;23.02;;;9.10;;
28760;SDS011;15917;50.014;8.352;2023-04-06T10:46:02;20.52;;;9.30;;
28760;SDS011;15917;50.014;8.352;2023-04-06T10:48:46;22.10;;;10.50;;
28760;SDS011;15917;50.014;8.352;2023-04-06T10:51:13;28.58;;;11.48;;
28760;SDS011;15917;50.014;8.352;2023-04-06T10:53:43;21.77;;;9.70;;
28760;SDS011;15917;50.014;8.352;2023-04-06T10:56:12;26.10;;;9.10;;
28760;SDS011;15917;50.014;8.352;2023-04-06T10:58:46;19.73;;;9.05;;
28760;SDS011;15917;50.014;8.352;2023-04-06T11:01:12;19.42;;;9.68;;
28760;SDS011;15917;50.014;8.352;2023-04-06T11:03:46;23.10;;;9.13;;
28760;SDS011;15917;50.014;8.352;2023-04-06T11:06:23;20.13;;;9.95;;
28760;SDS011;15917;50.014;8.352;2023-04-06T11:08:50;19.38;;;10.48;;
28760;SDS011;15917;50.014;8.352;2023-04-06T11:11:17;26.90;;;10.35;;
28760;SDS011;15917;50.014;8.352;2023-04-06T11:13:45;23.52;;;10.13;;
28760;SDS011;15917;50.014;8.352;2023-04-06T11:16:19;23.85;;;9.20;;
28760;SDS011;15917;50.014;8.352;2023-04-06T11:19:08;24.42;;;10.25;;
28760;SDS011;15917;50.014;8.352;2023-04-06T11:21:36;21.02;;;10.15;;
28760;SDS011;15917;50.014;8.352;2023-04-06T11:26:38;18.13;;;9.50;;
28760;SDS011;15917;50.014;8.352;2023-04-06T11:29:05;24.48;;;10.18;;
28760;SDS011;15917;50.014;8.352;2023-04-06T11:31:36;23.40;;;10.60;;
28760;SDS011;15917;50.014;8.352;2023-04-06T11:34:08;20.95;;;9.68;;
28760;SDS011;15917;50.014;8.352;2023-04-06T11:36:35;26.05;;;11.07;;
28760;SDS011;15917;50.014;8.352;2023-04-06T11:39:02;21.25;;;9.52;;
28760;SDS011;15917;50.014;8.352;2023-04-06T11:41:28;26.13;;;10.60;;
28760;SDS011;15917;50.014;8.352;2023-04-06T11:43:55;25.77;;;10.88;;
28760;SDS011;15917;50.014;8.352;2023-04-06T11:46:21;30.30;;;10.88;;
28760;SDS011;15917;50.014;8.352;2023-04-06T11:48:47;27.33;;;10.88;;
28760;SDS011;15917;50.014;8.352;2023-04-06T11:51:12;23.48;;;8.77;;
28760;SDS011;15917;50.014;8.352;2023-04-06T11:53:47;25.92;;;10.00;;
28760;SDS011;15917;50.014;8.352;2023-04-06T11:56:28;25.20;;;8.70;;
28760;SDS011;15917;50.014;8.352;2023-04-06T11:58:55;22.63;;;9.93;;
28760;SDS011;15917;50.014;8.352;2023-04-06T12:01:22;26.48;;;11.05;;
28760;SDS011;15917;50.014;8.352;2023-04-06T12:03:49;24.08;;;10.80;;
28760;SDS011;15917;50.014;8.352;2023-04-06T12:06:15;22.25;;;10.18;;
28760;SDS011;15917;50.014;8.352;2023-04-06T12:08:40;21.77;;;9.77;;
28760;SDS011;15917;50.014;8.352;2023-04-06T12:11:06;19.35;;;9.05;;
28760;SDS011;15917;50.014;8.352;2023-04-06T12:13:32;25.00;;;9.50;;
28760;SDS011;15917;50.014;8.352;2023-04-06T12:15:58;18.67;;;8.43;;
28760;SDS011;15917;50.014;8.352;2023-04-06T12:18:23;22.10;;;9.05;;
28760;SDS011;15917;50.014;8.352;2023-04-06T12:20:51;22.20;;;10.50;;
28760;SDS011;15917;50.014;8.352;2023-04-06T12:23:17;24.08;;;9.90;;
28760;SDS011;15917;50.014;8.352;2023-04-06T12:25:44;24.83;;;10.18;;
28760;SDS011;15917;50.014;8.352;2023-04-06T12:28:09;22.77;;;10.45;;
28760;SDS011;15917;50.014;8.352;2023-04-06T12:30:35;20.40;;;8.93;;
28760;SDS011;15917;50.014;8.352;2023-04-06T12:33:01;20.70;;;9.45;;
28760;SDS011;15917;50.014;8.352;2023-04-06T12:35:26;20.17;;;9.43;;
28760;SDS011;15917;50.014;8.352;2023-04-06T12:37:52;16.48;;;8.43;;
28760;SDS011;15917;50.014;8.352;2023-04-06T12:40:18;18.48;;;7.97;;
28760;SDS011;15917;50.014;8.352;2023-04-06T12:42:44;23.13;;;8.95;;
28760;SDS011;15917;50.014;8.352;2023-04-06T12:45:11;19.88;;;10.05;;
28760;SDS011;15917;50.014;8.352;2023-04-06T12:47:36;22.05;;;10.05;;
28760;SDS011;15917;50.014;8.352;2023-04-06T12:50:03;23.35;;;10.02;;
28760;SDS011;15917;50.014;8.352;2023-04-06T12:52:31;19.85;;;8.45;;
28760;SDS011;15917;50.014;8.352;2023-04-06T12:54:57;18.77;;;9.00;;
28760;SDS011;15917;50.014;8.352;2023-04-06T12:57:24;23.58;;;9.30;;
28760;SDS011;15917;50.014;8.352;2023-04-06T12:59:50;22.13;;;9.48;;
28760;SDS011;15917;50.014;8.352;2023-04-06T13:02:16;21.52;;;9.68;;
28760;SDS011;15917;50.014;8.352;2023-04-06T13:04:42;19.77;;;9.32;;
28760;SDS011;15917;50.014;8.352;2023-04-06T13:07:08;24.23;;;10.20;;
28760;SDS011;15917;50.014;8.352;2023-04-06T13:09:33;19.73;;;8.07;;
28760;SDS011;15917;50.014;8.352;2023-04-06T13:11:59;17.55;;;8.65;;
28760;SDS011;15917;50.014;8.352;2023-04-06T13:14:26;15.52;;;8.00;;
28760;SDS011;15917;50.014;8.352;2023-04-06T13:16:51;16.42;;;7.88;;
28760;SDS011;15917;50.014;8.352;2023-04-06T13:19:17;15.85;;;7.85;;
28760;SDS011;15917;50.014;8.352;2023-04-06T13:21:43;18.73;;;9.55;;
28760;SDS011;15917;50.014;8.352;2023-04-06T13:24:09;18.65;;;8.02;;
28760;SDS011;15917;50.014;8.352;2023-04-06T13:26:35;20.45;;;8.00;;
28760;SDS011;15917;50.014;8.352;2023-04-06T13:29:01;16.27;;;8.23;;
28760;SDS011;15917;50.014;8.352;2023-04-06T13:31:27;15.85;;;7.82;;
28760;SDS011;15917;50.014;8.352;2023-04-06T13:33:53;18.30;;;7.03;;
28760;SDS011;15917;50.014;8.352;2023-04-06T13:36:19;16.23;;;7.45;;
28760;SDS011;15917;50.014;8.352;2023-04-06T13:38:45;14.38;;;7.75;;
28760;SDS011;15917;50.014;8.352;2023-04-06T13:41:19;17.05;;;7.10;;
28760;SDS011;15917;50.014;8.352;2023-04-06T13:43:46;16.50;;;7.18;;
28760;SDS011;15917;50.014;8.352;2023-04-06T13:46:12;14.95;;;6.45;;
28760;SDS011;15917;50.014;8.352;2023-04-06T13:48:37;16.92;;;6.65;;
28760;SDS011;15917;50.014;8.352;2023-04-06T13:51:12;16.67;;;6.47;;
28760;SDS011;15917;50.014;8.352;2023-04-06T13:53:44;20.27;;;7.57;;
28760;SDS011;15917;50.014;8.352;2023-04-06T13:56:10;13.60;;;6.85;;
28760;SDS011;15917;50.014;8.352;2023-04-06T13:58:35;13.75;;;6.75;;
28760;SDS011;15917;50.014;8.352;2023-04-06T14:01:02;14.93;;;6.72;;
28760;SDS011;15917;50.014;8.352;2023-04-06T14:03:32;14.13;;;6.80;;
28760;SDS011;15917;50.014;8.352;2023-04-06T14:05:58;22.17;;;7.32;;
28760;SDS011;15917;50.014;8.352;2023-04-06T14:08:24;16.02;;;6.70;;
28760;SDS011;15917;50.014;8.352;2023-04-06T14:10:50;18.20;;;6.45;;
28760;SDS011;15917;50.014;8.352;2023-04-06T14:13:15;13.95;;;6.75;;
28760;SDS011;15917;50.014;8.352;2023-04-06T14:15:42;17.10;;;6.78;;
28760;SDS011;15917;50.014;8.352;2023-04-06T14:18:08;17.63;;;6.97;;
28760;SDS011;15917;50.014;8.352;2023-04-06T14:20:34;16.13;;;6.53;;
28760;SDS011;15917;50.014;8.352;2023-04-06T14:23:00;20.45;;;7.28;;
28760;SDS011;15917;50.014;8.352;2023-04-06T14:25:27;12.48;;;5.95;;
28760;SDS011;15917;50.014;8.352;2023-04-06T14:27:53;16.17;;;6.88;;
28760;SDS011;15917;50.014;8.352;2023-04-06T14:30:19;14.23;;;6.15;;
28760;SDS011;15917;50.014;8.352;2023-04-06T14:32:44;13.43;;;6.13;;
28760;SDS011;15917;50.014;8.352;2023-04-06T14:35:10;13.30;;;6.32;;
28760;SDS011;15917;50.014;8.352;2023-04-06T14:37:36;13.32;;;6.28;;
28760;SDS011;15917;50.014;8.352;2023-04-06T14:40:02;12.23;;;6.32;;
28760;SDS011;15917;50.014;8.352;2023-04-06T14:42:28;16.87;;;6.10;;
28760;SDS011;15917;50.014;8.352;2023-04-06T14:44:54;14.10;;;6.68;;
28760;SDS011;15917;50.014;8.352;2023-04-06T14:47:20;14.05;;;6.47;;
28760;SDS011;15917;50.014;8.352;2023-04-06T14:49:46;16.35;;;6.15;;
28760;SDS011;15917;50.014;8.352;2023-04-06T14:52:13;18.67;;;6.45;;
28760;SDS011;15917;50.014;8.352;2023-04-06T14:54:39;14.50;;;6.85;;